Time;durP1;ratioP1;P1;durP2;ratioP2;P2;SDS_P1;SDS_P2;PMS_P1;PMS_P2;Temp;Humidity;BMP_temperature;BMP_pressure;BME280_temperature;BME280_humidity;BME280_pressure;Samples;Min_cycle;Max_cycle;Signal;HPM_P1;HPM_P2
2023/05/24 00:01:01;;;;;;;1999.90;999.90;;;;;;;16.18;100.00;97658.50;5047993;28;20026;-75
2023/05/24 00:03:29;;;;;;;1999.90;999.90;;;;;;;16.14;100.00;97660.34;5033459;28;20038;-77
2023/05/24 00:05:55;;;;;;;1999.90;999.90;;;;;;;16.15;100.00;97653.69;5025484;28;20052;-75
2023/05/24 00:08:21;;;;;;;1999.90;999.90;;;;;;;16.05;100.00;97646.63;5015272;28;20033;-75
2023/05/24 00:10:47;;;;;;;1999.90;999.90;;;;;;;16.11;100.00;97663.75;5023874;28;20037;-75
2023/05/24 00:13:14;;;;;;;1999.90;999.90;;;;;;;16.09;100.00;97664.13;5019276;28;20502;-78
2023/05/24 00:15:39;;;;;;;1999.90;999.90;;;;;;;16.14;100.00;97665.84;5025934;28;20033;-76
2023/05/24 00:18:05;;;;;;;1999.90;999.90;;;;;;;16.16;100.00;97674.63;5032704;28;20029;-74
2023/05/24 00:20:30;;;;;;;1999.90;999.90;;;;;;;16.11;100.00;97672.03;5032582;28;20033;-77
2023/05/24 00:22:56;;;;;;;1999.90;999.90;;;;;;;16.13;100.00;97662.31;5032597;28;20051;-76
2023/05/24 00:25:21;;;;;;;1999.90;999.90;;;;;;;16.23;100.00;97659.09;5014385;28;20025;-77
2023/05/24 00:27:47;;;;;;;1999.90;999.90;;;;;;;16.30;100.00;97664.06;5032542;28;20104;-76
2023/05/24 00:30:12;;;;;;;1999.90;999.90;;;;;;;16.30;100.00;97658.56;5014590;28;20029;-75
2023/05/24 00:32:37;;;;;;;1999.90;999.90;;;;;;;16.28;100.00;97660.88;5032199;28;20167;-77
2023/05/24 00:35:03;;;;;;;1999.90;999.90;;;;;;;16.36;100.00;97662.72;5032186;28;20034;-76
2023/05/24 00:37:28;;;;;;;1999.90;999.90;;;;;;;16.22;100.00;97662.22;5032240;28;20037;-76
2023/05/24 00:39:54;;;;;;;1999.90;999.90;;;;;;;16.08;100.00;97666.06;5032410;28;20042;-77
2023/05/24 00:42:19;;;;;;;1999.90;999.90;;;;;;;16.03;100.00;97665.47;5032281;28;20030;-76
2023/05/24 00:44:44;;;;;;;1999.90;999.90;;;;;;;16.06;100.00;97671.13;5036063;28;20455;-76
2023/05/24 00:47:10;;;;;;;1999.90;999.90;;;;;;;16.04;100.00;97667.88;5035346;28;20032;-76
2023/05/24 00:49:35;;;;;;;1999.90;999.90;;;;;;;16.00;100.00;97666.97;5032114;28;20382;-77
2023/05/24 00:52:01;;;;;;;1999.90;999.90;;;;;;;16.00;100.00;97669.72;5014213;28;20025;-75
2023/05/24 00:54:28;;;;;;;1999.90;999.90;;;;;;;15.98;100.00;97685.78;5031909;28;20108;-75
2023/05/24 00:56:54;;;;;;;1999.90;999.90;;;;;;;15.94;100.00;97675.78;5031767;28;20026;-77
2023/05/24 00:59:20;;;;;;;1999.90;999.90;;;;;;;15.89;100.00;97682.28;5032335;28;20025;-77
2023/05/24 01:01:46;;;;;;;1999.90;999.90;;;;;;;15.91;100.00;97677.22;5031532;28;20032;-76
2023/05/24 01:04:12;;;;;;;1999.90;999.90;;;;;;;15.99;100.00;97676.38;5019679;28;20512;-76
2023/05/24 01:06:50;;;;;;;1999.90;999.90;;;;;;;16.04;100.00;97676.16;5011427;28;20128;-75
2023/05/24 01:09:27;;;;;;;1999.90;999.90;;;;;;;15.96;100.00;97677.06;5012195;28;20068;-77
2023/05/24 01:12:06;;;;;;;1999.90;999.90;;;;;;;15.92;100.00;97684.38;5012090;28;20554;-77
2023/05/24 01:14:49;;;;;;;1999.90;999.90;;;;;;;15.90;100.00;97683.09;5012304;28;20025;-75
2023/05/24 01:17:22;;;;;;;1999.90;999.90;;;;;;;15.82;100.00;97684.78;5011920;28;20042;-76
2023/05/24 01:20:00;;;;;;;1999.90;999.90;;;;;;;15.74;100.00;97679.31;5020307;28;20071;-77
2023/05/24 01:22:44;;;;;;;1999.90;999.90;;;;;;;15.87;100.00;97676.31;5031904;28;20034;-78
2023/05/24 01:25:34;;;;;;;1999.90;999.90;;;;;;;15.90;100.00;97689.44;5031635;28;20051;-76
2023/05/24 01:28:03;;;;;;;1999.90;999.90;;;;;;;15.79;100.00;97679.94;5031949;28;20042;-75
2023/05/24 01:30:28;;;;;;;1999.90;999.90;;;;;;;15.69;100.00;97674.03;5031782;28;20394;-78
2023/05/24 01:32:54;;;;;;;1999.90;999.90;;;;;;;15.76;100.00;97686.13;5031525;28;20033;-75
2023/05/24 01:35:20;;;;;;;1999.90;999.90;;;;;;;15.76;100.00;97694.38;5013682;28;20057;-75
2023/05/24 01:37:45;;;;;;;1999.90;999.90;;;;;;;15.77;100.00;97686.94;5012365;28;20386;-75
2023/05/24 01:40:11;;;;;;;1999.90;999.90;;;;;;;15.80;100.00;97689.00;5030111;28;20031;-75
2023/05/24 01:42:45;;;;;;;1999.90;999.90;;;;;;;15.73;100.00;97684.03;5030873;28;20116;-76
2023/05/24 01:45:21;;;;;;;1999.90;999.90;;;;;;;15.69;100.00;97677.59;5030914;28;20021;-75
2023/05/24 01:48:17;;;;;;;1999.90;999.90;;;;;;;15.74;100.00;97687.59;5030743;28;20390;-75
2023/05/24 01:50:51;;;;;;;1999.90;999.90;;;;;;;15.80;100.00;97689.81;5030833;28;20087;-76
2023/05/24 01:53:19;;;;;;;1999.90;999.90;;;;;;;15.79;100.00;97690.16;5030815;28;20033;-77
2023/05/24 01:55:50;;;;;;;1999.90;999.90;;;;;;;15.78;100.00;97685.78;5030841;28;20025;-75
2023/05/24 01:58:18;;;;;;;1999.90;999.90;;;;;;;15.69;100.00;97677.59;5031140;28;20033;-74
2023/05/24 02:00:44;;;;;;;1999.90;999.90;;;;;;;15.68;100.00;97687.00;5031273;28;20513;-74
2023/05/24 02:03:13;;;;;;;1999.90;999.90;;;;;;;15.70;100.00;97690.22;5030990;28;20104;-75
2023/05/24 02:05:39;;;;;;;1999.90;999.90;;;;;;;15.70;100.00;97684.69;5030758;28;20148;-74
2023/05/24 02:08:04;;;;;;;1999.90;999.90;;;;;;;15.66;100.00;97689.28;5031174;28;20526;-74
2023/05/24 02:10:30;;;;;;;1999.90;999.90;;;;;;;15.63;100.00;97684.41;5031009;28;20018;-74
2023/05/24 02:12:55;;;;;;;1999.90;999.90;;;;;;;15.68;100.00;97688.94;5030626;28;20033;-75
2023/05/24 02:15:20;;;;;;;1999.90;999.90;;;;;;;15.69;100.00;97688.63;5030725;28;20152;-76
2023/05/24 02:17:46;;;;;;;1999.90;999.90;;;;;;;15.68;100.00;97694.47;5031105;28;20074;-76
2023/05/24 02:20:12;;;;;;;1999.90;999.90;;;;;;;15.54;100.00;97683.66;5030829;28;20378;-76
2023/05/24 02:22:37;;;;;;;1999.90;999.90;;;;;;;15.63;100.00;97702.94;5031025;28;20025;-76
2023/05/24 02:25:03;;;;;;;1999.90;999.90;;;;;;;15.54;100.00;97705.72;5030921;28;20087;-74
2023/05/24 02:27:28;;;;;;;1999.90;999.90;;;;;;;15.66;100.00;97705.84;5030663;28;20025;-76
2023/05/24 02:29:54;;;;;;;1999.90;999.90;;;;;;;15.67;100.00;97707.44;5030492;28;20022;-76
2023/05/24 02:32:20;;;;;;;1999.90;999.90;;;;;;;15.66;100.00;97711.34;5030369;28;20026;-76
2023/05/24 02:34:45;;;;;;;1999.90;999.90;;;;;;;15.56;100.00;97700.69;5016275;28;20064;-78
2023/05/24 02:37:13;;;;;;;1999.90;999.90;;;;;;;15.63;100.00;97712.00;5033550;28;20033;-76
2023/05/24 02:39:40;;;;;;;1999.90;999.90;;;;;;;15.61;100.00;97708.78;5030834;28;20022;-78
2023/05/24 02:42:07;;;;;;;1999.90;999.90;;;;;;;15.78;100.00;97713.38;5046024;28;20033;-75
2023/05/24 02:44:32;;;;;;;1999.90;999.90;;;;;;;15.83;100.00;97708.47;5030467;28;20386;-76
2023/05/24 02:46:58;;;;;;;1999.90;999.90;;;;;;;15.82;100.00;97704.06;5030416;28;20025;-75
2023/05/24 02:49:23;;;;;;;1999.90;999.90;;;;;;;15.75;100.00;97706.59;5030908;28;20497;-76
2023/05/24 02:51:48;;;;;;;1999.90;999.90;;;;;;;15.76;100.00;97702.66;5030757;28;20080;-75
2023/05/24 02:54:16;;;;;;;1999.90;999.90;;;;;;;15.72;100.00;97711.97;5036958;28;20087;-77
2023/05/24 02:56:41;;;;;;;1999.90;999.90;;;;;;;15.72;100.00;97704.50;5032556;28;20029;-77
2023/05/24 02:59:07;;;;;;;1999.90;999.90;;;;;;;15.74;100.00;97715.19;5030413;28;20048;-75
2023/05/24 03:01:33;;;;;;;1999.90;999.90;;;;;;;15.67;100.00;97712.94;5030284;28;20021;-76
2023/05/24 03:03:58;;;;;;;1999.90;999.90;;;;;;;15.67;100.00;97714.91;5030227;28;20117;-77
2023/05/24 03:06:24;;;;;;;1999.90;999.90;;;;;;;15.72;100.00;97718.28;5041865;28;20041;-75
2023/05/24 03:08:49;;;;;;;1999.90;999.90;;;;;;;15.67;100.00;97717.66;5050310;28;20470;-75
2023/05/24 03:11:15;;;;;;;1999.90;999.90;;;;;;;15.66;100.00;97716.06;5050112;28;20017;-76
2023/05/24 03:13:41;;;;;;;1999.90;999.90;;;;;;;15.60;100.00;97707.16;5049925;28;20032;-77
2023/05/24 03:16:06;;;;;;;1999.90;999.90;;;;;;;15.68;100.00;97714.56;5050151;28;20120;-75
2023/05/24 03:18:32;;;;;;;1999.90;999.90;;;;;;;15.68;100.00;97722.84;5047899;28;20119;-76
2023/05/24 03:20:57;;;;;;;1999.90;999.90;;;;;;;15.61;100.00;97719.00;5040623;28;20022;-75
2023/05/24 03:23:22;;;;;;;1999.90;999.90;;;;;;;15.60;100.00;97726.44;5029928;28;20060;-75
2023/05/24 03:25:48;;;;;;;1999.90;999.90;;;;;;;15.60;100.00;97723.69;5041497;28;20055;-77
2023/05/24 03:28:13;;;;;;;1999.90;999.90;;;;;;;15.63;100.00;97725.00;5031693;28;20033;-75
2023/05/24 03:30:39;;;;;;;1999.90;999.90;;;;;;;15.69;100.00;97723.66;5049824;28;20021;-76
2023/05/24 03:33:05;;;;;;;1999.90;999.90;;;;;;;15.67;100.00;97729.50;5049527;28;20029;-75
2023/05/24 03:35:30;;;;;;;1999.90;999.90;;;;;;;15.58;100.00;97734.25;5049497;28;20086;-73
2023/05/24 03:37:55;;;;;;;1999.90;999.90;;;;;;;15.66;100.00;97738.94;5040817;28;20040;-76
2023/05/24 03:40:20;;;;;;;1999.90;999.90;;;;;;;15.65;100.00;97737.31;5029631;28;20034;-74
2023/05/24 03:42:46;;;;;;;1999.90;999.90;;;;;;;15.62;100.00;97746.25;5030961;28;20478;-75
2023/05/24 03:45:11;;;;;;;1999.90;999.90;;;;;;;15.59;100.00;97752.44;5033138;28;20394;-75
2023/05/24 03:47:36;;;;;;;1999.90;999.90;;;;;;;15.58;100.00;97747.22;5033248;28;20390;-76
2023/05/24 03:50:02;;;;;;;1999.90;999.90;;;;;;;15.56;100.00;97749.53;5033395;28;20034;-76
2023/05/24 03:52:27;;;;;;;1999.90;999.90;;;;;;;15.52;100.00;97754.88;5032968;28;20068;-76
2023/05/24 03:54:53;;;;;;;1999.90;999.90;;;;;;;15.52;100.00;97760.41;5032981;28;20033;-76
2023/05/24 03:57:18;;;;;;;1999.90;999.90;;;;;;;15.48;100.00;97760.25;5032650;28;20390;-76
2023/05/24 03:59:43;;;;;;;1999.90;999.90;;;;;;;15.52;100.00;97760.41;5032819;28;20026;-75
2023/05/24 04:02:09;;;;;;;1999.90;999.90;;;;;;;15.54;100.00;97758.09;5032946;28;20033;-75
2023/05/24 04:04:36;;;;;;;1999.90;999.90;;;;;;;15.46;100.00;97757.00;5033001;28;20036;-78
2023/05/24 04:07:01;;;;;;;1999.90;999.90;;;;;;;15.55;100.00;97762.50;5016459;28;20060;-76
2023/05/24 04:09:27;;;;;;;1999.90;999.90;;;;;;;15.53;100.00;97767.53;5012899;28;20398;-77
2023/05/24 04:11:52;;;;;;;1999.90;999.90;;;;;;;15.52;100.00;97763.16;5013085;28;20030;-77
2023/05/24 04:14:17;;;;;;;1999.90;999.90;;;;;;;15.53;100.00;97767.53;5022866;28;20041;-80
2023/05/24 04:16:43;;;;;;;1999.90;999.90;;;;;;;15.53;100.00;97762.03;5015209;28;20044;-77
2023/05/24 04:19:09;;;;;;;1999.90;999.90;;;;;;;15.61;100.00;97777.72;5033251;28;20034;-77
2023/05/24 04:21:36;;;;;;;1999.90;999.90;;;;;;;15.50;100.00;97773.72;5032789;28;20124;-78
2023/05/24 04:24:03;;;;;;;1999.90;999.90;;;;;;;15.46;100.00;97772.72;5032797;28;20056;-76
2023/05/24 04:26:29;;;;;;;1999.90;999.90;;;;;;;15.50;100.00;97773.72;5014650;28;20488;-77
2023/05/24 04:28:54;;;;;;;1999.90;999.90;;;;;;;15.52;100.00;97771.44;5032423;28;20104;-76
2023/05/24 04:31:20;;;;;;;1999.90;999.90;;;;;;;15.67;100.00;97783.84;5032332;28;20389;-76
2023/05/24 04:33:47;;;;;;;1999.90;999.90;;;;;;;15.70;100.00;97778.47;5032424;28;20108;-76
2023/05/24 04:36:12;;;;;;;1999.90;999.90;;;;;;;15.77;100.00;97776.00;5014552;28;20037;-76
2023/05/24 04:38:39;;;;;;;1999.90;999.90;;;;;;;15.79;100.00;97775.66;5014144;28;20033;-77
2023/05/24 04:41:05;;;;;;;1999.90;999.90;;;;;;;15.88;100.00;97782.72;5014704;28;20108;-76
2023/05/24 04:43:31;;;;;;;1999.90;999.90;;;;;;;15.95;100.00;97777.50;5023658;28;20025;-75
2023/05/24 04:45:57;;;;;;;1999.90;999.90;;;;;;;16.00;100.00;97777.31;5027947;28;20632;-79
2023/05/24 04:48:23;;;;;;;1999.90;999.90;;;;;;;16.10;100.00;97780.84;5029888;28;20033;-78
2023/05/24 04:50:52;;;;;;;1999.90;999.90;;;;;;;16.06;100.00;97787.03;5012358;28;20058;-76
2023/05/24 04:53:19;;;;;;;1999.90;999.90;;;;;;;16.08;100.00;97790.25;5012655;28;20453;-78
2023/05/24 04:55:45;;;;;;;1999.90;999.90;;;;;;;16.15;100.00;97799.94;5013587;28;20025;-80
2023/05/24 04:58:10;;;;;;;1999.90;999.90;;;;;;;16.20;100.00;97805.25;5031977;28;20043;-78
2023/05/24 05:00:35;;;;;;;1999.90;999.90;;;;;;;16.11;100.00;97794.28;5033620;28;20021;-76
2023/05/24 05:03:01;;;;;;;1999.90;999.90;;;;;;;16.36;100.00;97803.50;5036277;28;20056;-78
2023/05/24 05:05:26;;;;;;;1999.90;999.90;;;;;;;16.46;100.00;97808.63;5031613;28;20120;-77
2023/05/24 05:07:52;;;;;;;1999.90;999.90;;;;;;;16.61;100.00;97808.06;5031806;28;20124;-78
2023/05/24 05:10:17;;;;;;;1999.90;999.90;;;;;;;16.61;100.00;97813.56;5013308;28;20032;-77
2023/05/24 05:12:43;;;;;;;1999.90;999.90;;;;;;;16.59;100.00;97813.13;5031608;28;20063;-82
2023/05/24 05:15:09;;;;;;;1999.90;999.90;;;;;;;16.59;100.00;97810.34;5031519;28;20025;-82
2023/05/24 05:17:34;;;;;;;1999.90;999.90;;;;;;;16.56;100.00;97822.06;5032233;28;20544;-79
2023/05/24 05:19:59;;;;;;;1999.90;999.90;;;;;;;16.58;100.00;97817.00;5013899;28;20032;-77
2023/05/24 05:22:25;;;;;;;1999.90;999.90;;;;;;;16.57;100.00;97818.19;5030821;28;20025;-79
2023/05/24 05:24:50;;;;;;;1999.90;999.90;;;;;;;16.57;100.00;97830.00;5030896;28;20572;-75
2023/05/24 05:27:16;;;;;;;1999.90;999.90;;;;;;;16.59;100.00;97821.41;5031381;28;20029;-83
2023/05/24 05:29:41;;;;;;;1999.90;999.90;;;;;;;16.54;100.00;97819.63;5033832;28;20444;-76
2023/05/24 05:32:06;;;;;;;1999.90;999.90;;;;;;;16.67;100.00;97828.78;5028893;28;20437;-75
2023/05/24 05:34:32;;;;;;;1999.90;999.90;;;;;;;16.80;100.00;97827.72;5031386;28;20033;-76
2023/05/24 05:36:57;;;;;;;1999.90;999.90;;;;;;;16.84;100.00;97834.19;5030461;28;20017;-77
2023/05/24 05:39:22;;;;;;;1999.90;999.90;;;;;;;16.87;100.00;97833.50;5013743;28;20417;-76
2023/05/24 05:41:48;;;;;;;1999.90;999.90;;;;;;;16.95;100.00;97829.84;5031476;28;20057;-75
2023/05/24 05:44:13;;;;;;;1999.90;999.90;;;;;;;17.03;100.00;97819.88;5031593;28;20053;-77
2023/05/24 05:46:39;;;;;;;1999.90;999.90;;;;;;;16.97;100.00;97812.94;5031377;28;20036;-76
2023/05/24 05:49:05;;;;;;;1999.90;999.90;;;;;;;16.94;100.00;97819.94;5031884;28;20449;-76
2023/05/24 05:51:30;;;;;;;1999.90;999.90;;;;;;;16.93;100.00;97836.84;5031044;28;20105;-77
2023/05/24 05:53:56;;;;;;;1999.90;999.90;;;;;;;16.94;100.00;97836.53;5030993;28;20127;-78
2023/05/24 05:56:21;;;;;;;1999.90;999.90;;;;;;;16.96;100.00;97837.00;5030441;28;20036;-76
2023/05/24 05:58:46;;;;;;;1999.90;999.90;;;;;;;16.96;100.00;97837.00;5029867;28;20478;-75
2023/05/24 06:01:12;;;;;;;1999.90;999.90;;;;;;;16.88;100.00;97845.38;5012590;28;20033;-75
2023/05/24 06:03:37;;;;;;;1999.90;999.90;;;;;;;16.94;100.00;97855.88;5030800;28;20056;-76
2023/05/24 06:06:02;;;;;;;1999.90;999.90;;;;;;;16.90;100.00;97837.53;5030599;28;20410;-76
2023/05/24 06:08:33;;;;;;;1999.90;999.90;;;;;;;16.86;100.00;97842.13;5030994;28;20496;-77
2023/05/24 06:10:59;;;;;;;1999.90;999.90;;;;;;;16.94;100.00;97844.00;5013559;28;20086;-76
2023/05/24 06:13:27;;;;;;;1999.90;999.90;;;;;;;17.03;100.00;97850.25;5030805;28;20041;-76
2023/05/24 06:15:52;;;;;;;1999.90;999.90;;;;;;;17.11;100.00;97844.66;5030866;28;20041;-77
2023/05/24 06:18:17;;;;;;;1999.90;999.90;;;;;;;17.22;100.00;97852.50;5031264;28;20581;-76
2023/05/24 06:20:43;;;;;;;1999.90;999.90;;;;;;;17.22;100.00;97849.75;5030854;28;20053;-76
2023/05/24 06:23:08;;;;;;;1999.90;999.90;;;;;;;17.43;100.00;97850.50;5030836;28;20029;-76
2023/05/24 06:25:34;;;;;;;1999.90;999.90;;;;;;;17.47;100.00;97845.91;5012687;28;21924;-77
2023/05/24 06:27:59;;;;;;;1999.90;999.90;;;;;;;17.71;100.00;97861.75;5012533;28;20057;-77
2023/05/24 06:30:26;;;;;;;1999.90;999.90;;;;;;;17.70;100.00;97863.69;5030519;28;20481;-76
2023/05/24 06:32:51;;;;;;;1999.90;999.90;;;;;;;17.78;100.00;97862.81;5030773;28;20029;-75
2023/05/24 06:35:16;;;;;;;1999.90;999.90;;;;;;;17.59;100.00;97862.53;5030882;28;20473;-76
2023/05/24 06:37:42;;;;;;;1999.90;999.90;;;;;;;17.61;100.00;97863.81;5030774;28;20049;-74
2023/05/24 06:40:11;;;;;;;1999.90;999.90;;;;;;;17.56;100.00;97869.56;5029701;28;20032;-74
2023/05/24 06:42:38;;;;;;;1999.90;999.90;;;;;;;17.59;100.00;97873.63;5029644;28;20029;-78
2023/05/24 06:45:03;;;;;;;1999.90;999.90;;;;;;;17.55;100.00;97878.19;5030286;28;20030;-75
2023/05/24 06:47:29;;;;;;;1999.90;999.90;;;;;;;17.51;100.00;97875.28;5030407;28;20095;-75
2023/05/24 06:49:54;;;;;;;1999.90;999.90;;;;;;;17.47;100.00;97877.13;5030784;28;20367;-76
2023/05/24 06:52:19;;;;;;;1999.90;999.90;;;;;;;17.45;100.00;97876.66;5030277;28;20036;-76
2023/05/24 06:54:45;;;;;;;1999.90;999.90;;;;;;;17.28;100.00;97873.28;5012381;28;20025;-76
2023/05/24 06:57:11;;;;;;;1999.90;999.90;;;;;;;17.21;100.00;97881.31;5030289;28;20029;-75
2023/05/24 06:59:37;;;;;;;1999.90;999.90;;;;;;;17.24;100.00;97875.91;5030364;28;20083;-76
2023/05/24 07:02:03;;;;;;;1999.90;999.90;;;;;;;17.27;100.00;97866.13;5030258;28;20022;-75
2023/05/24 07:04:28;;;;;;;1999.90;999.90;;;;;;;17.44;100.00;97874.25;5012505;28;20489;-76
2023/05/24 07:06:53;;;;;;;1999.90;999.90;;;;;;;17.44;100.00;97877.00;5028472;28;20057;-76
2023/05/24 07:09:19;;;;;;;1999.90;999.90;;;;;;;17.45;100.00;97881.38;5054327;28;20154;-76
2023/05/24 07:11:44;;;;;;;1999.90;999.90;;;;;;;17.49;100.00;97882.31;5052309;28;20451;-76
2023/05/24 07:14:09;;;;;;;1999.90;999.90;;;;;;;17.52;100.00;97887.16;5050103;28;20032;-75
2023/05/24 07:16:35;;;;;;;1999.90;999.90;;;;;;;17.50;100.00;97883.94;5049918;28;20568;-77
2023/05/24 07:19:00;;;;;;;1999.90;999.90;;;;;;;17.37;100.00;97885.03;5053792;28;20032;-75
2023/05/24 07:21:26;;;;;;;1999.90;999.90;;;;;;;17.45;100.00;97890.47;5054039;28;20591;-75
2023/05/24 07:23:51;;;;;;;1999.90;999.90;;;;;;;17.53;100.00;97891.53;5055189;28;20374;-75
2023/05/24 07:26:17;;;;;;;1999.90;999.90;;;;;;;17.65;100.00;97888.84;5055558;28;20059;-75
2023/05/24 07:28:42;;;;;;;1999.90;999.90;;;;;;;17.79;100.00;97891.28;5055205;28;20060;-74
2023/05/24 07:31:08;;;;;;;1999.90;999.90;;;;;;;17.73;100.00;97893.44;5053770;28;20033;-75
2023/05/24 07:33:37;;;;;;;1999.90;999.90;;;;;;;17.84;100.00;97894.63;5053644;28;20112;-76
2023/05/24 07:36:04;;;;;;;1999.90;999.90;;;;;;;18.00;100.00;97890.03;5053714;28;20061;-75
2023/05/24 07:38:29;;;;;;;1999.90;999.90;;;;;;;18.12;100.00;97890.03;5053651;28;20383;-75
2023/05/24 07:40:57;;;;;;;1999.90;999.90;;;;;;;18.36;100.00;97889.22;5053810;28;20558;-76
2023/05/24 07:43:22;;;;;;;1999.90;999.90;;;;;;;18.50;100.00;97894.44;5035911;28;20075;-75
2023/05/24 07:45:48;;;;;;;1999.90;999.90;;;;;;;18.72;100.00;97896.72;5035560;28;20025;-76
2023/05/24 07:48:13;;;;;;;1999.90;999.90;;;;;;;18.69;100.00;97898.22;5053551;28;20033;-76
2023/05/24 07:50:38;;;;;;;1999.90;999.90;;;;;;;18.64;100.00;97892.09;5053343;28;20024;-76
2023/05/24 07:53:05;;;;;;;1999.90;999.90;;;;;;;18.69;100.00;97891.88;5053442;28;20083;-77
2023/05/24 07:55:30;;;;;;;1999.90;999.90;;;;;;;18.80;100.00;97897.72;5053429;28;20025;-76
2023/05/24 07:57:55;;;;;;;1999.90;999.90;;;;;;;18.82;100.00;97890.69;5053515;28;20027;-76
2023/05/24 08:00:21;;;;;;;1999.90;999.90;;;;;;;18.69;100.00;97891.88;5053455;28;20428;-77
2023/05/24 08:02:47;;;;;;;1999.90;999.90;;;;;;;18.75;100.00;97896.00;5053315;28;20037;-75
2023/05/24 08:05:13;;;;;;;1999.90;999.90;;;;;;;18.63;100.00;97884.94;5033041;28;20036;-77
2023/05/24 08:07:40;;;;;;;1999.90;999.90;;;;;;;18.92;100.00;97894.94;5033197;28;20041;-76
2023/05/24 08:10:06;;;;;;;1999.90;999.90;;;;;;;19.20;100.00;97898.53;5033227;28;20061;-75
2023/05/24 08:12:32;;;;;;;1999.90;999.90;;;;;;;19.54;100.00;97895.16;5033005;28;20045;-75
2023/05/24 08:14:57;;;;;;;1999.90;999.90;;;;;;;19.96;100.00;97895.44;5032969;28;20029;-77
2023/05/24 08:17:23;;;;;;;1999.90;999.90;;;;;;;20.23;100.00;97902.91;5033177;28;20041;-77
2023/05/24 08:19:49;;;;;;;1999.90;999.90;;;;;;;20.43;100.00;97900.19;5033073;28;20029;-75
2023/05/24 08:22:14;;;;;;;1999.90;999.90;;;;;;;20.64;100.00;97906.28;5032690;28;20077;-75
2023/05/24 08:24:40;;;;;;;1999.90;999.90;;;;;;;20.42;100.00;97906.94;5032858;28;20482;-74
2023/05/24 08:27:06;;;;;;;1999.90;999.90;;;;;;;19.96;100.00;97902.97;5032785;28;20113;-76
2023/05/24 08:29:31;;;;;;;1999.90;999.90;;;;;;;20.02;100.00;97905.13;5032731;28;20599;-76
2023/05/24 08:31:57;;;;;;;1999.90;999.90;;;;;;;20.28;100.00;97902.66;5032866;28;20029;-74
2023/05/24 08:34:22;;;;;;;1999.90;999.90;;;;;;;20.12;100.00;97910.16;5032550;28;20036;-76
2023/05/24 08:36:48;;;;;;;1999.90;999.90;;;;;;;20.55;100.00;97911.22;5032547;28;20037;-76
2023/05/24 08:39:13;;;;;;;1999.90;999.90;;;;;;;21.25;100.00;97912.81;5032663;28;20036;-75
2023/05/24 08:41:39;;;;;;;1999.90;999.90;;;;;;;20.87;100.00;97909.97;5032591;28;20502;-76
2023/05/24 08:44:06;;;;;;;1999.90;999.90;;;;;;;20.61;100.00;97909.78;5032622;28;20482;-75
2023/05/24 08:46:35;;;;;;;1999.90;999.90;;;;;;;20.54;100.00;97920.72;5032502;28;20026;-75
2023/05/24 08:49:06;;;;;;;1999.90;999.90;;;;;;;20.77;100.00;97916.09;5034222;28;20025;-77
2023/05/24 08:51:32;;;;;;;1999.90;999.90;;;;;;;21.28;100.00;97914.88;5032366;28;20033;-77
2023/05/24 08:53:58;;;;;;;1999.90;999.90;;;;;;;21.60;100.00;97912.72;5032358;28;20087;-76
2023/05/24 08:56:24;;;;;;;1999.90;999.90;;;;;;;22.12;100.00;97916.84;5032284;28;20052;-75
2023/05/24 08:58:49;;;;;;;1999.90;999.90;;;;;;;22.76;100.00;97910.38;5032148;28;20025;-76
2023/05/24 09:01:16;;;;;;;1999.90;999.90;;;;;;;22.88;100.00;97915.72;5032337;28;20026;-76
2023/05/24 09:03:42;;;;;;;1999.90;999.90;;;;;;;22.48;100.00;97912.69;5032042;28;20387;-74
2023/05/24 09:06:11;;;;;;;1999.90;999.90;;;;;;;22.20;100.00;97908.28;5031792;28;20095;-77
2023/05/24 09:08:37;;;;;;;1999.90;999.90;;;;;;;21.94;100.00;97915.75;5032113;28;20059;-77
2023/05/24 09:11:06;;;;;;;1999.90;999.90;;;;;;;21.13;100.00;97915.75;5032174;28;20486;-75
2023/05/24 09:13:33;;;;;;;1999.90;999.90;;;;;;;20.41;100.00;97906.13;5032137;28;20033;-77
2023/05/24 09:15:59;;;;;;;1999.90;999.90;;;;;;;19.83;100.00;97907.81;5032631;28;20033;-76
2023/05/24 09:18:24;;;;;;;1999.90;999.90;;;;;;;19.46;100.00;97909.97;5035466;28;20029;-77
2023/05/24 09:20:50;;;;;;;1999.90;999.90;;;;;;;19.73;100.00;97913.91;5031832;28;20060;-76
2023/05/24 09:23:16;;;;;;;1999.90;999.90;;;;;;;19.76;100.00;97913.19;5031895;28;20492;-78
2023/05/24 09:25:45;;;;;;;1999.90;999.90;;;;;;;19.87;100.00;97908.72;5031636;28;20075;-76
2023/05/24 09:28:16;;;;;;;1999.90;999.90;;;;;;;20.21;100.00;97907.19;5031657;28;20033;-75
2023/05/24 09:30:43;;;;;;;1999.90;999.90;;;;;;;20.48;100.00;97911.06;5031646;28;20072;-77
2023/05/24 09:33:08;;;;;;;1999.90;999.90;;;;;;;20.80;100.00;97912.56;5031368;28;20025;-76
2023/05/24 09:35:35;;;;;;;1999.90;999.90;;;;;;;20.52;100.00;97920.25;5031510;28;20029;-75
2023/05/24 09:38:02;;;;;;;1999.90;999.90;;;;;;;20.82;100.00;97924.16;5031686;28;20509;-77
2023/05/24 09:40:28;;;;;;;1999.90;999.90;;;;;;;20.87;100.00;97923.88;5031070;28;20026;-78
2023/05/24 09:43:08;;;;;;;1999.90;999.90;;;;;;;20.66;100.00;97923.38;5031525;28;20029;-74
2023/05/24 09:45:42;;;;;;;1999.90;999.90;;;;;;;20.53;100.00;97924.66;5031337;28;20390;-75
2023/05/24 09:48:15;;;;;;;1999.90;999.90;;;;;;;19.92;100.00;97916.78;5033271;28;20072;-75
2023/05/24 09:50:41;;;;;;;1999.90;999.90;;;;;;;19.76;100.00;97913.19;5033299;28;20082;-75
2023/05/24 09:53:07;;;;;;;1999.90;999.90;;;;;;;19.88;100.00;97913.09;5031561;28;20041;-74
2023/05/24 09:55:35;;;;;;;1999.90;999.90;;;;;;;19.95;100.00;97909.72;5031331;28;20033;-75
2023/05/24 09:58:10;;;;;;;1999.90;999.90;;;;;;;19.83;100.00;97902.25;5031240;28;20029;-75
2023/05/24 10:00:39;;;;;;;1999.90;999.90;;;;;;;20.01;100.00;97916.59;5031161;28;20394;-74
2023/05/24 10:03:06;;;;;;;1999.90;999.90;;;;;;;20.13;100.00;97911.78;5030850;28;20041;-75
2023/05/24 10:05:33;;;;;;;1999.90;999.90;;;;;;;19.78;100.00;97908.06;5031048;28;20053;-74
2023/05/24 10:07:59;;;;;;;1999.90;999.90;;;;;;;19.72;100.00;97892.84;5031056;28;20044;-74
2023/05/24 10:10:29;;;;;;;1999.90;999.90;;;;;;;19.82;100.00;97900.66;5030958;28;20065;-74
2023/05/24 10:12:55;;;;;;;1999.90;999.90;;;;;;;19.62;100.00;97899.72;5030815;28;20037;-74
2023/05/24 10:15:21;;;;;;;1999.90;999.90;;;;;;;19.55;100.00;97909.81;5030915;28;20056;-76
2023/05/24 10:17:47;;;;;;;1999.90;999.90;;;;;;;19.50;100.00;97896.22;5030846;28;20068;-75
2023/05/24 10:20:12;;;;;;;1999.90;999.90;;;;;;;19.19;100.00;97892.16;5030915;28;20043;-76
2023/05/24 10:22:46;;;;;;;1999.90;999.90;;;;;;;19.01;100.00;97896.41;5031009;28;20029;-75
2023/05/24 10:25:21;;;;;;;1999.90;999.90;;;;;;;19.09;100.00;97900.16;5030659;28;20017;-77
2023/05/24 10:27:49;;;;;;;1999.90;999.90;;;;;;;19.30;100.00;97891.63;5030556;28;20546;-75
2023/05/24 10:30:23;;;;;;;1999.90;999.90;;;;;;;19.69;100.00;97886.03;5030514;28;20116;-75
2023/05/24 10:32:50;;;;;;;1999.90;999.90;;;;;;;19.80;100.00;97891.84;5030439;28;20494;-78
2023/05/24 10:35:18;;;;;;;1999.90;999.90;;;;;;;20.11;100.00;97897.41;5030514;28;20033;-77
2023/05/24 10:37:45;;;;;;;1999.90;999.90;;;;;;;20.42;100.00;97895.81;5030487;28;20462;-77
2023/05/24 10:40:24;;;;;;;1999.90;999.90;;;;;;;20.52;100.00;97907.19;5030697;28;20032;-77
2023/05/24 10:42:50;;;;;;;1999.90;999.90;;;;;;;20.73;100.00;97909.66;5030500;28;20025;-77
2023/05/24 10:45:21;;;;;;;1999.90;999.90;;;;;;;20.65;100.00;97905.09;5030397;28;20394;-79